This is the latest recevied weather packets stored in our database for station/object EA7AIS-10. If no packets are shown the sender has not sent any weather packets the latest 10 day(s).
| Time | Temp. | Humidity | Pressure | Rain* | Wind** | Luminosity | Snow |
|---|---|---|---|---|---|---|---|
| 1777968100 | 29.44° C | 33% | 1012 hPa | - | - | - | - |
| 1777967199 | 27.78° C | 34% | 1012 hPa | - | - | - | - |
| 1777966299 | 26.11° C | 38% | 1012 hPa | - | - | - | - |
| 1777965399 | 24.44° C | 42% | 1011.9 hPa | - | - | - | - |
| 1777964500 | 22.22° C | 46% | 1012 hPa | - | - | - | - |
| 1777963599 | 20.56° C | 51% | 1012.1 hPa | - | - | - | - |
| 1777962699 | 17.78° C | 59% | 1012 hPa | - | - | - | - |
| 1777961799 | 15° C | 68% | 1011.8 hPa | - | - | - | - |
| 1777960899 | 14.44° C | 70% | 1011.7 hPa | - | - | - | - |
| 1777959998 | 13.89° C | 71% | 1011.7 hPa | - | - | - | - |
| 1777959099 | 13.89° C | 71% | 1011.6 hPa | - | - | - | - |
| 1777958199 | 13.89° C | 70% | 1011.4 hPa | - | - | - | - |
| 1777957298 | 14.44° C | 69% | 1011.4 hPa | - | - | - | - |
| 1777956398 | 14.44° C | 68% | 1011.3 hPa | - | - | - | - |
| 1777955498 | 14.44° C | 68% | 1011.3 hPa | - | - | - | - |
| 1777954598 | 14.44° C | 68% | 1011.2 hPa | - | - | - | - |
| 1777953698 | 15° C | 68% | 1011.3 hPa | - | - | - | - |
| 1777952798 | 15° C | 67% | 1011.3 hPa | - | - | - | - |
| 1777951898 | 15° C | 67% | 1011.3 hPa | - | - | - | - |
| 1777950998 | 15.56° C | 65% | 1011.3 hPa | - | - | - | - |
| 1777950098 | 15.56° C | 65% | 1011.3 hPa | - | - | - | - |
| 1777949197 | 15.56° C | 67% | 1011.4 hPa | - | - | - | - |
| 1777948297 | 15.56° C | 71% | 1011.4 hPa | - | - | - | - |
| 1777947397 | 15.56° C | 71% | 1011.4 hPa | - | - | - | - |
| 1777946497 | 16.11° C | 72% | 1011.4 hPa | - | - | - | - |
* Rain since midnight (hover to see other rain measurements)
** Current wind speed in m/s (hover to see current wind gust speed)